sensor_id;sensor_type;location;lat;lon;timestamp;P1;durP1;ratioP1;P2;durP2;ratioP2
8716;SDS011;4395;48.554;8.820;2022-07-29T00:01:15;6.43;;;3.77;;
8716;SDS011;4395;48.554;8.820;2022-07-29T00:03:20;4.20;;;3.90;;
8716;SDS011;4395;48.554;8.820;2022-07-29T00:05:24;4.50;;;4.10;;
8716;SDS011;4395;48.554;8.820;2022-07-29T00:07:27;5.50;;;5.00;;
8716;SDS011;4395;48.554;8.820;2022-07-29T00:09:30;4.77;;;4.17;;
8716;SDS011;4395;48.554;8.820;2022-07-29T00:11:42;5.10;;;4.60;;
8716;SDS011;4395;48.554;8.820;2022-07-29T00:13:45;5.40;;;4.90;;
8716;SDS011;4395;48.554;8.820;2022-07-29T00:15:51;5.80;;;4.67;;
8716;SDS011;4395;48.554;8.820;2022-07-29T00:17:54;5.20;;;4.80;;
8716;SDS011;4395;48.554;8.820;2022-07-29T00:19:57;5.43;;;4.93;;
8716;SDS011;4395;48.554;8.820;2022-07-29T00:22:01;7.53;;;5.03;;
8716;SDS011;4395;48.554;8.820;2022-07-29T00:24:04;5.23;;;4.83;;
8716;SDS011;4395;48.554;8.820;2022-07-29T00:26:07;5.27;;;4.70;;
8716;SDS011;4395;48.554;8.820;2022-07-29T00:28:10;5.47;;;4.63;;
8716;SDS011;4395;48.554;8.820;2022-07-29T00:30:13;5.27;;;4.60;;
8716;SDS011;4395;48.554;8.820;2022-07-29T00:32:16;5.33;;;4.57;;
8716;SDS011;4395;48.554;8.820;2022-07-29T00:34:18;4.87;;;4.47;;
8716;SDS011;4395;48.554;8.820;2022-07-29T00:36:39;4.63;;;3.97;;
8716;SDS011;4395;48.554;8.820;2022-07-29T00:38:43;6.63;;;5.60;;
8716;SDS011;4395;48.554;8.820;2022-07-29T00:40:47;5.50;;;5.10;;
8716;SDS011;4395;48.554;8.820;2022-07-29T00:42:50;5.97;;;4.30;;
8716;SDS011;4395;48.554;8.820;2022-07-29T00:44:55;4.47;;;4.10;;
8716;SDS011;4395;48.554;8.820;2022-07-29T00:46:58;5.57;;;4.70;;
8716;SDS011;4395;48.554;8.820;2022-07-29T00:49:01;5.73;;;4.17;;
8716;SDS011;4395;48.554;8.820;2022-07-29T00:51:05;5.17;;;4.17;;
8716;SDS011;4395;48.554;8.820;2022-07-29T00:53:08;5.00;;;4.50;;
8716;SDS011;4395;48.554;8.820;2022-07-29T00:55:15;5.07;;;4.43;;
8716;SDS011;4395;48.554;8.820;2022-07-29T00:57:18;5.30;;;4.80;;
8716;SDS011;4395;48.554;8.820;2022-07-29T00:59:22;5.40;;;4.90;;
8716;SDS011;4395;48.554;8.820;2022-07-29T01:01:35;5.10;;;4.60;;
8716;SDS011;4395;48.554;8.820;2022-07-29T01:03:38;7.40;;;4.53;;
8716;SDS011;4395;48.554;8.820;2022-07-29T01:05:41;5.30;;;4.83;;
8716;SDS011;4395;48.554;8.820;2022-07-29T01:07:52;5.30;;;4.70;;
8716;SDS011;4395;48.554;8.820;2022-07-29T01:09:56;5.63;;;5.13;;
8716;SDS011;4395;48.554;8.820;2022-07-29T01:12:02;6.33;;;5.73;;
8716;SDS011;4395;48.554;8.820;2022-07-29T01:14:08;5.57;;;5.13;;
8716;SDS011;4395;48.554;8.820;2022-07-29T01:16:13;5.87;;;5.37;;
8716;SDS011;4395;48.554;8.820;2022-07-29T01:18:20;6.83;;;5.70;;
8716;SDS011;4395;48.554;8.820;2022-07-29T01:20:27;8.80;;;5.57;;
8716;SDS011;4395;48.554;8.820;2022-07-29T01:25:18;5.03;;;4.53;;
8716;SDS011;4395;48.554;8.820;2022-07-29T01:27:37;5.10;;;4.70;;
8716;SDS011;4395;48.554;8.820;2022-07-29T01:29:48;4.90;;;4.50;;
8716;SDS011;4395;48.554;8.820;2022-07-29T01:31:59;7.80;;;6.30;;
8716;SDS011;4395;48.554;8.820;2022-07-29T01:34:07;5.67;;;5.17;;
8716;SDS011;4395;48.554;8.820;2022-07-29T01:36:13;6.67;;;5.33;;
8716;SDS011;4395;48.554;8.820;2022-07-29T01:38:20;7.47;;;5.30;;
8716;SDS011;4395;48.554;8.820;2022-07-29T01:40:26;6.70;;;5.77;;
8716;SDS011;4395;48.554;8.820;2022-07-29T01:42:34;6.30;;;4.93;;
8716;SDS011;4395;48.554;8.820;2022-07-29T01:44:40;5.20;;;4.70;;
8716;SDS011;4395;48.554;8.820;2022-07-29T01:46:50;5.30;;;4.80;;
8716;SDS011;4395;48.554;8.820;2022-07-29T01:49:00;5.73;;;5.03;;
8716;SDS011;4395;48.554;8.820;2022-07-29T01:51:09;5.03;;;4.53;;
8716;SDS011;4395;48.554;8.820;2022-07-29T01:53:21;5.17;;;4.47;;
8716;SDS011;4395;48.554;8.820;2022-07-29T01:55:39;4.60;;;4.20;;
8716;SDS011;4395;48.554;8.820;2022-07-29T01:57:48;4.67;;;4.27;;
8716;SDS011;4395;48.554;8.820;2022-07-29T01:59:52;5.20;;;4.50;;
8716;SDS011;4395;48.554;8.820;2022-07-29T02:01:58;4.73;;;4.30;;
8716;SDS011;4395;48.554;8.820;2022-07-29T02:04:03;4.13;;;3.73;;
8716;SDS011;4395;48.554;8.820;2022-07-29T02:06:08;3.73;;;3.47;;
8716;SDS011;4395;48.554;8.820;2022-07-29T02:08:13;4.20;;;3.90;;
8716;SDS011;4395;48.554;8.820;2022-07-29T02:10:18;4.27;;;3.87;;
8716;SDS011;4395;48.554;8.820;2022-07-29T02:12:26;3.87;;;3.57;;
8716;SDS011;4395;48.554;8.820;2022-07-29T02:14:33;4.00;;;3.67;;
8716;SDS011;4395;48.554;8.820;2022-07-29T02:16:38;4.00;;;3.70;;
8716;SDS011;4395;48.554;8.820;2022-07-29T02:18:44;4.00;;;3.70;;
8716;SDS011;4395;48.554;8.820;2022-07-29T02:20:52;3.63;;;3.33;;
8716;SDS011;4395;48.554;8.820;2022-07-29T02:22:58;3.77;;;3.47;;
8716;SDS011;4395;48.554;8.820;2022-07-29T02:25:03;5.37;;;3.33;;
8716;SDS011;4395;48.554;8.820;2022-07-29T02:27:14;5.97;;;3.90;;
8716;SDS011;4395;48.554;8.820;2022-07-29T02:29:19;4.00;;;3.60;;
8716;SDS011;4395;48.554;8.820;2022-07-29T02:31:25;3.97;;;3.67;;
8716;SDS011;4395;48.554;8.820;2022-07-29T02:33:32;3.60;;;3.40;;
8716;SDS011;4395;48.554;8.820;2022-07-29T02:35:37;3.50;;;3.30;;
8716;SDS011;4395;48.554;8.820;2022-07-29T02:37:42;4.13;;;3.70;;
8716;SDS011;4395;48.554;8.820;2022-07-29T02:40:08;3.57;;;3.27;;
8716;SDS011;4395;48.554;8.820;2022-07-29T02:42:14;4.03;;;3.73;;
8716;SDS011;4395;48.554;8.820;2022-07-29T02:44:21;3.73;;;3.43;;
8716;SDS011;4395;48.554;8.820;2022-07-29T02:46:35;3.80;;;3.40;;
8716;SDS011;4395;48.554;8.820;2022-07-29T02:48:41;4.87;;;3.57;;
8716;SDS011;4395;48.554;8.820;2022-07-29T02:50:54;6.73;;;4.03;;
8716;SDS011;4395;48.554;8.820;2022-07-29T02:53:08;4.10;;;3.33;;
8716;SDS011;4395;48.554;8.820;2022-07-29T02:55:16;3.80;;;3.43;;
8716;SDS011;4395;48.554;8.820;2022-07-29T02:57:28;4.00;;;3.40;;
8716;SDS011;4395;48.554;8.820;2022-07-29T02:59:35;3.07;;;2.87;;
8716;SDS011;4395;48.554;8.820;2022-07-29T03:01:40;3.60;;;3.00;;
8716;SDS011;4395;48.554;8.820;2022-07-29T03:03:46;3.87;;;3.50;;
8716;SDS011;4395;48.554;8.820;2022-07-29T03:05:53;3.43;;;3.13;;
8716;SDS011;4395;48.554;8.820;2022-07-29T03:07:58;3.40;;;3.00;;
8716;SDS011;4395;48.554;8.820;2022-07-29T03:10:04;3.07;;;2.87;;
8716;SDS011;4395;48.554;8.820;2022-07-29T03:12:14;3.53;;;3.30;;
8716;SDS011;4395;48.554;8.820;2022-07-29T03:14:18;3.70;;;3.47;;
8716;SDS011;4395;48.554;8.820;2022-07-29T03:16:22;6.43;;;3.53;;
8716;SDS011;4395;48.554;8.820;2022-07-29T03:18:25;4.07;;;3.20;;
8716;SDS011;4395;48.554;8.820;2022-07-29T03:20:29;4.37;;;4.07;;
8716;SDS011;4395;48.554;8.820;2022-07-29T03:22:33;3.70;;;3.40;;
8716;SDS011;4395;48.554;8.820;2022-07-29T03:24:44;4.03;;;3.43;;
8716;SDS011;4395;48.554;8.820;2022-07-29T03:26:47;3.30;;;3.10;;
8716;SDS011;4395;48.554;8.820;2022-07-29T03:28:50;3.87;;;3.47;;
8716;SDS011;4395;48.554;8.820;2022-07-29T03:30:54;3.77;;;3.47;;
8716;SDS011;4395;48.554;8.820;2022-07-29T03:32:57;4.10;;;3.80;;
8716;SDS011;4395;48.554;8.820;2022-07-29T03:34:59;4.23;;;3.27;;
8716;SDS011;4395;48.554;8.820;2022-07-29T03:37:02;3.30;;;3.00;;
8716;SDS011;4395;48.554;8.820;2022-07-29T03:39:06;5.17;;;3.60;;
8716;SDS011;4395;48.554;8.820;2022-07-29T03:41:11;4.70;;;3.73;;
8716;SDS011;4395;48.554;8.820;2022-07-29T03:43:16;4.10;;;3.70;;
8716;SDS011;4395;48.554;8.820;2022-07-29T03:45:20;5.50;;;4.03;;
8716;SDS011;4395;48.554;8.820;2022-07-29T03:47:27;5.93;;;3.90;;
8716;SDS011;4395;48.554;8.820;2022-07-29T03:49:52;5.63;;;3.73;;
8716;SDS011;4395;48.554;8.820;2022-07-29T03:51:59;4.43;;;4.13;;
8716;SDS011;4395;48.554;8.820;2022-07-29T03:54:02;5.80;;;5.17;;
8716;SDS011;4395;48.554;8.820;2022-07-29T03:56:16;5.37;;;4.90;;
8716;SDS011;4395;48.554;8.820;2022-07-29T03:58:23;5.47;;;4.50;;
8716;SDS011;4395;48.554;8.820;2022-07-29T04:00:28;5.50;;;5.00;;
8716;SDS011;4395;48.554;8.820;2022-07-29T04:02:32;5.27;;;4.60;;
8716;SDS011;4395;48.554;8.820;2022-07-29T04:04:36;5.97;;;5.10;;
8716;SDS011;4395;48.554;8.820;2022-07-29T04:06:39;6.60;;;4.80;;
8716;SDS011;4395;48.554;8.820;2022-07-29T04:08:43;5.73;;;5.23;;
8716;SDS011;4395;48.554;8.820;2022-07-29T04:10:45;5.87;;;5.13;;
8716;SDS011;4395;48.554;8.820;2022-07-29T04:12:50;5.23;;;4.37;;
8716;SDS011;4395;48.554;8.820;2022-07-29T04:14:53;4.80;;;4.40;;
8716;SDS011;4395;48.554;8.820;2022-07-29T04:16:56;4.70;;;4.30;;
8716;SDS011;4395;48.554;8.820;2022-07-29T04:18:59;4.53;;;3.87;;
8716;SDS011;4395;48.554;8.820;2022-07-29T04:21:02;4.40;;;4.00;;
8716;SDS011;4395;48.554;8.820;2022-07-29T04:23:05;6.13;;;4.37;;
8716;SDS011;4395;48.554;8.820;2022-07-29T04:25:08;4.83;;;4.33;;
8716;SDS011;4395;48.554;8.820;2022-07-29T04:27:11;4.57;;;4.17;;
8716;SDS011;4395;48.554;8.820;2022-07-29T04:29:15;4.47;;;4.10;;
8716;SDS011;4395;48.554;8.820;2022-07-29T04:31:18;5.70;;;4.80;;
8716;SDS011;4395;48.554;8.820;2022-07-29T04:33:26;6.03;;;4.10;;
8716;SDS011;4395;48.554;8.820;2022-07-29T04:35:29;6.87;;;4.17;;
8716;SDS011;4395;48.554;8.820;2022-07-29T04:37:39;4.60;;;4.20;;
8716;SDS011;4395;48.554;8.820;2022-07-29T04:39:41;5.73;;;4.47;;
8716;SDS011;4395;48.554;8.820;2022-07-29T04:41:44;5.33;;;3.73;;
8716;SDS011;4395;48.554;8.820;2022-07-29T04:43:48;4.47;;;4.07;;
8716;SDS011;4395;48.554;8.820;2022-07-29T04:45:55;4.83;;;3.90;;
8716;SDS011;4395;48.554;8.820;2022-07-29T04:47:58;4.23;;;3.83;;
8716;SDS011;4395;48.554;8.820;2022-07-29T04:50:01;5.97;;;3.63;;
8716;SDS011;4395;48.554;8.820;2022-07-29T04:52:04;5.57;;;5.07;;
8716;SDS011;4395;48.554;8.820;2022-07-29T04:54:08;5.80;;;5.07;;
8716;SDS011;4395;48.554;8.820;2022-07-29T04:56:11;5.27;;;4.87;;
8716;SDS011;4395;48.554;8.820;2022-07-29T04:58:14;5.97;;;5.40;;
8716;SDS011;4395;48.554;8.820;2022-07-29T05:00:17;6.27;;;5.67;;
8716;SDS011;4395;48.554;8.820;2022-07-29T05:02:21;6.30;;;5.67;;
8716;SDS011;4395;48.554;8.820;2022-07-29T05:04:24;6.27;;;5.67;;
8716;SDS011;4395;48.554;8.820;2022-07-29T05:06:27;7.47;;;5.87;;
8716;SDS011;4395;48.554;8.820;2022-07-29T05:08:29;6.13;;;5.53;;
8716;SDS011;4395;48.554;8.820;2022-07-29T05:10:32;5.73;;;5.23;;
8716;SDS011;4395;48.554;8.820;2022-07-29T05:12:40;6.33;;;5.43;;
8716;SDS011;4395;48.554;8.820;2022-07-29T05:14:43;6.20;;;5.60;;
8716;SDS011;4395;48.554;8.820;2022-07-29T05:16:46;7.43;;;6.37;;
8716;SDS011;4395;48.554;8.820;2022-07-29T05:18:51;6.70;;;6.10;;
8716;SDS011;4395;48.554;8.820;2022-07-29T05:20:55;6.83;;;6.13;;
8716;SDS011;4395;48.554;8.820;2022-07-29T05:22:58;6.63;;;6.00;;
8716;SDS011;4395;48.554;8.820;2022-07-29T05:25:02;6.70;;;5.83;;
8716;SDS011;4395;48.554;8.820;2022-07-29T05:27:09;6.30;;;5.67;;
8716;SDS011;4395;48.554;8.820;2022-07-29T05:29:12;7.20;;;6.60;;
8716;SDS011;4395;48.554;8.820;2022-07-29T05:31:35;6.77;;;6.20;;
8716;SDS011;4395;48.554;8.820;2022-07-29T05:33:38;8.17;;;6.53;;
8716;SDS011;4395;48.554;8.820;2022-07-29T05:35:42;6.60;;;6.10;;
8716;SDS011;4395;48.554;8.820;2022-07-29T05:37:46;6.90;;;6.20;;
8716;SDS011;4395;48.554;8.820;2022-07-29T05:39:49;8.50;;;6.43;;
8716;SDS011;4395;48.554;8.820;2022-07-29T05:41:57;6.70;;;6.13;;
8716;SDS011;4395;48.554;8.820;2022-07-29T05:44:00;7.87;;;7.00;;
8716;SDS011;4395;48.554;8.820;2022-07-29T05:46:03;6.90;;;6.20;;
8716;SDS011;4395;48.554;8.820;2022-07-29T05:48:06;6.97;;;6.27;;
8716;SDS011;4395;48.554;8.820;2022-07-29T05:50:10;7.13;;;6.43;;
8716;SDS011;4395;48.554;8.820;2022-07-29T05:52:14;7.00;;;6.40;;
8716;SDS011;4395;48.554;8.820;2022-07-29T05:54:17;8.47;;;5.97;;
8716;SDS011;4395;48.554;8.820;2022-07-29T05:56:20;6.73;;;6.23;;
8716;SDS011;4395;48.554;8.820;2022-07-29T05:58:23;7.23;;;6.53;;
8716;SDS011;4395;48.554;8.820;2022-07-29T06:00:26;7.63;;;6.70;;
8716;SDS011;4395;48.554;8.820;2022-07-29T06:02:29;7.27;;;6.60;;
8716;SDS011;4395;48.554;8.820;2022-07-29T06:04:32;7.10;;;6.50;;
8716;SDS011;4395;48.554;8.820;2022-07-29T06:06:36;6.97;;;6.37;;
8716;SDS011;4395;48.554;8.820;2022-07-29T06:08:40;6.87;;;6.23;;
8716;SDS011;4395;48.554;8.820;2022-07-29T06:10:43;7.30;;;6.60;;
8716;SDS011;4395;48.554;8.820;2022-07-29T06:12:46;6.70;;;6.10;;
8716;SDS011;4395;48.554;8.820;2022-07-29T06:14:49;7.07;;;6.40;;
8716;SDS011;4395;48.554;8.820;2022-07-29T06:16:54;6.70;;;6.10;;
8716;SDS011;4395;48.554;8.820;2022-07-29T06:18:57;6.87;;;6.30;;
8716;SDS011;4395;48.554;8.820;2022-07-29T06:21:00;7.63;;;6.23;;
8716;SDS011;4395;48.554;8.820;2022-07-29T06:23:03;6.73;;;6.23;;
8716;SDS011;4395;48.554;8.820;2022-07-29T06:25:08;6.70;;;6.10;;
8716;SDS011;4395;48.554;8.820;2022-07-29T06:27:11;7.10;;;6.40;;
8716;SDS011;4395;48.554;8.820;2022-07-29T06:29:13;6.60;;;6.00;;
8716;SDS011;4395;48.554;8.820;2022-07-29T06:31:17;7.10;;;6.40;;
8716;SDS011;4395;48.554;8.820;2022-07-29T06:33:20;8.63;;;6.77;;
8716;SDS011;4395;48.554;8.820;2022-07-29T06:35:22;6.90;;;6.20;;
8716;SDS011;4395;48.554;8.820;2022-07-29T06:37:42;7.03;;;6.43;;
8716;SDS011;4395;48.554;8.820;2022-07-29T06:39:46;7.53;;;6.73;;
8716;SDS011;4395;48.554;8.820;2022-07-29T06:42:10;6.83;;;6.30;;
8716;SDS011;4395;48.554;8.820;2022-07-29T06:44:15;6.83;;;6.20;;
8716;SDS011;4395;48.554;8.820;2022-07-29T06:46:20;6.63;;;6.13;;
8716;SDS011;4395;48.554;8.820;2022-07-29T06:48:24;7.20;;;6.60;;
8716;SDS011;4395;48.554;8.820;2022-07-29T06:50:27;6.80;;;6.20;;
8716;SDS011;4395;48.554;8.820;2022-07-29T06:52:30;7.30;;;6.60;;
8716;SDS011;4395;48.554;8.820;2022-07-29T06:54:33;6.67;;;6.17;;
8716;SDS011;4395;48.554;8.820;2022-07-29T06:56:36;7.23;;;6.43;;
8716;SDS011;4395;48.554;8.820;2022-07-29T06:58:42;6.57;;;5.97;;
8716;SDS011;4395;48.554;8.820;2022-07-29T07:00:45;7.83;;;7.13;;
8716;SDS011;4395;48.554;8.820;2022-07-29T07:02:48;8.13;;;7.03;;
8716;SDS011;4395;48.554;8.820;2022-07-29T07:04:51;9.10;;;6.57;;
8716;SDS011;4395;48.554;8.820;2022-07-29T07:06:54;7.53;;;6.20;;
8716;SDS011;4395;48.554;8.820;2022-07-29T07:08:57;6.50;;;5.90;;
8716;SDS011;4395;48.554;8.820;2022-07-29T07:11:00;7.50;;;6.70;;
8716;SDS011;4395;48.554;8.820;2022-07-29T07:13:03;8.80;;;6.47;;
8716;SDS011;4395;48.554;8.820;2022-07-29T07:15:09;7.37;;;6.67;;
8716;SDS011;4395;48.554;8.820;2022-07-29T07:17:12;7.57;;;6.33;;
8716;SDS011;4395;48.554;8.820;2022-07-29T07:19:15;8.57;;;6.57;;
8716;SDS011;4395;48.554;8.820;2022-07-29T07:21:19;7.20;;;6.60;;
8716;SDS011;4395;48.554;8.820;2022-07-29T07:23:22;8.70;;;6.43;;
8716;SDS011;4395;48.554;8.820;2022-07-29T07:25:26;7.17;;;6.47;;
8716;SDS011;4395;48.554;8.820;2022-07-29T07:27:29;6.90;;;6.30;;
8716;SDS011;4395;48.554;8.820;2022-07-29T07:29:32;7.93;;;6.73;;
8716;SDS011;4395;48.554;8.820;2022-07-29T07:31:37;7.37;;;6.67;;
8716;SDS011;4395;48.554;8.820;2022-07-29T07:33:40;8.77;;;6.90;;
8716;SDS011;4395;48.554;8.820;2022-07-29T07:35:43;7.17;;;6.47;;
8716;SDS011;4395;48.554;8.820;2022-07-29T07:37:46;7.33;;;6.57;;
8716;SDS011;4395;48.554;8.820;2022-07-29T07:39:49;6.60;;;6.00;;
8716;SDS011;4395;48.554;8.820;2022-07-29T07:41:52;8.83;;;6.20;;
8716;SDS011;4395;48.554;8.820;2022-07-29T07:43:55;8.40;;;6.50;;
8716;SDS011;4395;48.554;8.820;2022-07-29T07:45:58;6.60;;;5.90;;
8716;SDS011;4395;48.554;8.820;2022-07-29T07:48:02;7.97;;;6.27;;
8716;SDS011;4395;48.554;8.820;2022-07-29T07:50:06;7.77;;;6.67;;
8716;SDS011;4395;48.554;8.820;2022-07-29T07:52:19;6.87;;;6.13;;
8716;SDS011;4395;48.554;8.820;2022-07-29T07:54:23;7.23;;;6.20;;
8716;SDS011;4395;48.554;8.820;2022-07-29T07:56:25;7.20;;;6.50;;
8716;SDS011;4395;48.554;8.820;2022-07-29T07:58:35;8.80;;;6.17;;
8716;SDS011;4395;48.554;8.820;2022-07-29T08:00:38;9.30;;;5.97;;
8716;SDS011;4395;48.554;8.820;2022-07-29T08:02:41;6.73;;;6.00;;
8716;SDS011;4395;48.554;8.820;2022-07-29T08:04:46;6.47;;;5.93;;
8716;SDS011;4395;48.554;8.820;2022-07-29T08:06:48;6.40;;;5.83;;
8716;SDS011;4395;48.554;8.820;2022-07-29T08:08:52;7.47;;;5.87;;
8716;SDS011;4395;48.554;8.820;2022-07-29T08:10:56;6.23;;;5.70;;
8716;SDS011;4395;48.554;8.820;2022-07-29T08:13:03;7.17;;;5.57;;
8716;SDS011;4395;48.554;8.820;2022-07-29T08:15:06;6.30;;;5.70;;
8716;SDS011;4395;48.554;8.820;2022-07-29T08:17:10;6.00;;;5.40;;
8716;SDS011;4395;48.554;8.820;2022-07-29T08:19:13;6.90;;;6.13;;
8716;SDS011;4395;48.554;8.820;2022-07-29T08:21:17;8.37;;;5.30;;
8716;SDS011;4395;48.554;8.820;2022-07-29T08:23:20;8.93;;;5.73;;
8716;SDS011;4395;48.554;8.820;2022-07-29T08:25:25;9.20;;;5.60;;
8716;SDS011;4395;48.554;8.820;2022-07-29T08:27:28;5.93;;;5.33;;
8716;SDS011;4395;48.554;8.820;2022-07-29T08:29:44;6.80;;;5.33;;
8716;SDS011;4395;48.554;8.820;2022-07-29T08:31:47;6.17;;;5.47;;
8716;SDS011;4395;48.554;8.820;2022-07-29T08:33:50;6.27;;;5.10;;
8716;SDS011;4395;48.554;8.820;2022-07-29T08:35:52;6.73;;;5.30;;
8716;SDS011;4395;48.554;8.820;2022-07-29T08:37:56;7.37;;;5.20;;
8716;SDS011;4395;48.554;8.820;2022-07-29T08:40:01;5.23;;;4.73;;
8716;SDS011;4395;48.554;8.820;2022-07-29T08:42:04;5.63;;;4.97;;
8716;SDS011;4395;48.554;8.820;2022-07-29T08:44:08;7.37;;;4.77;;
8716;SDS011;4395;48.554;8.820;2022-07-29T08:46:11;5.33;;;4.83;;
8716;SDS011;4395;48.554;8.820;2022-07-29T08:48:15;5.17;;;4.77;;
8716;SDS011;4395;48.554;8.820;2022-07-29T08:50:20;7.50;;;5.00;;
8716;SDS011;4395;48.554;8.820;2022-07-29T08:52:23;7.50;;;4.80;;
8716;SDS011;4395;48.554;8.820;2022-07-29T08:54:29;7.87;;;4.50;;
8716;SDS011;4395;48.554;8.820;2022-07-29T08:56:32;5.13;;;4.63;;
8716;SDS011;4395;48.554;8.820;2022-07-29T08:58:36;5.17;;;4.63;;
8716;SDS011;4395;48.554;8.820;2022-07-29T09:00:41;5.10;;;4.60;;
8716;SDS011;4395;48.554;8.820;2022-07-29T09:02:49;7.83;;;4.80;;
8716;SDS011;4395;48.554;8.820;2022-07-29T09:04:58;4.73;;;4.33;;
8716;SDS011;4395;48.554;8.820;2022-07-29T09:07:04;4.30;;;3.93;;
8716;SDS011;4395;48.554;8.820;2022-07-29T09:09:08;5.00;;;4.30;;
8716;SDS011;4395;48.554;8.820;2022-07-29T09:11:12;8.80;;;4.40;;
8716;SDS011;4395;48.554;8.820;2022-07-29T09:13:15;5.43;;;4.70;;
8716;SDS011;4395;48.554;8.820;2022-07-29T09:15:18;5.80;;;4.27;;
8716;SDS011;4395;48.554;8.820;2022-07-29T09:19:43;4.97;;;4.57;;
8716;SDS011;4395;48.554;8.820;2022-07-29T09:21:46;6.63;;;4.27;;
8716;SDS011;4395;48.554;8.820;2022-07-29T09:24:05;5.20;;;4.80;;
8716;SDS011;4395;48.554;8.820;2022-07-29T09:26:09;6.43;;;4.67;;
8716;SDS011;4395;48.554;8.820;2022-07-29T09:28:14;5.10;;;4.60;;
8716;SDS011;4395;48.554;8.820;2022-07-29T09:30:18;5.07;;;4.60;;
8716;SDS011;4395;48.554;8.820;2022-07-29T09:32:32;8.30;;;4.10;;
8716;SDS011;4395;48.554;8.820;2022-07-29T09:34:35;4.67;;;4.33;;
8716;SDS011;4395;48.554;8.820;2022-07-29T09:36:39;6.33;;;4.87;;
8716;SDS011;4395;48.554;8.820;2022-07-29T09:38:43;7.17;;;4.17;;
8716;SDS011;4395;48.554;8.820;2022-07-29T09:41:01;5.43;;;4.20;;
8716;SDS011;4395;48.554;8.820;2022-07-29T09:43:10;4.43;;;4.03;;
8716;SDS011;4395;48.554;8.820;2022-07-29T09:45:26;6.43;;;4.30;;
8716;SDS011;4395;48.554;8.820;2022-07-29T09:47:39;5.17;;;4.57;;
8716;SDS011;4395;48.554;8.820;2022-07-29T09:49:53;8.30;;;4.10;;
8716;SDS011;4395;48.554;8.820;2022-07-29T09:52:00;7.17;;;4.80;;
8716;SDS011;4395;48.554;8.820;2022-07-29T09:54:22;4.57;;;4.03;;
8716;SDS011;4395;48.554;8.820;2022-07-29T09:56:37;4.83;;;4.07;;
8716;SDS011;4395;48.554;8.820;2022-07-29T09:58:41;7.83;;;4.10;;
8716;SDS011;4395;48.554;8.820;2022-07-29T10:00:46;4.30;;;3.90;;
8716;SDS011;4395;48.554;8.820;2022-07-29T10:02:50;5.90;;;3.87;;
8716;SDS011;4395;48.554;8.820;2022-07-29T10:04:57;5.07;;;4.10;;
8716;SDS011;4395;48.554;8.820;2022-07-29T10:07:02;4.83;;;4.00;;
8716;SDS011;4395;48.554;8.820;2022-07-29T10:09:06;6.97;;;3.60;;
8716;SDS011;4395;48.554;8.820;2022-07-29T10:11:11;4.13;;;3.83;;
8716;SDS011;4395;48.554;8.820;2022-07-29T10:13:14;7.67;;;3.90;;
8716;SDS011;4395;48.554;8.820;2022-07-29T10:15:17;4.03;;;3.70;;
8716;SDS011;4395;48.554;8.820;2022-07-29T10:17:22;5.57;;;3.80;;
8716;SDS011;4395;48.554;8.820;2022-07-29T10:19:25;4.63;;;3.70;;
8716;SDS011;4395;48.554;8.820;2022-07-29T10:21:28;6.67;;;4.00;;
8716;SDS011;4395;48.554;8.820;2022-07-29T10:23:36;6.70;;;3.97;;
8716;SDS011;4395;48.554;8.820;2022-07-29T10:25:46;5.17;;;4.67;;
8716;SDS011;4395;48.554;8.820;2022-07-29T10:27:50;4.20;;;3.80;;
8716;SDS011;4395;48.554;8.820;2022-07-29T10:29:53;4.47;;;4.07;;
8716;SDS011;4395;48.554;8.820;2022-07-29T10:32:02;6.40;;;4.20;;
8716;SDS011;4395;48.554;8.820;2022-07-29T10:34:16;6.70;;;4.20;;
8716;SDS011;4395;48.554;8.820;2022-07-29T10:36:32;5.43;;;4.63;;
8716;SDS011;4395;48.554;8.820;2022-07-29T10:38:50;4.47;;;4.00;;
8716;SDS011;4395;48.554;8.820;2022-07-29T10:41:00;4.80;;;4.13;;
8716;SDS011;4395;48.554;8.820;2022-07-29T10:43:45;6.00;;;4.60;;
8716;SDS011;4395;48.554;8.820;2022-07-29T10:45:54;6.83;;;6.20;;
8716;SDS011;4395;48.554;8.820;2022-07-29T10:48:02;6.97;;;5.07;;
8716;SDS011;4395;48.554;8.820;2022-07-29T10:50:10;5.07;;;4.57;;
8716;SDS011;4395;48.554;8.820;2022-07-29T10:52:17;11.43;;;10.00;;
8716;SDS011;4395;48.554;8.820;2022-07-29T10:54:39;6.40;;;5.80;;
8716;SDS011;4395;48.554;8.820;2022-07-29T10:56:47;5.97;;;5.17;;
8716;SDS011;4395;48.554;8.820;2022-07-29T11:01:36;6.47;;;3.53;;
8716;SDS011;4395;48.554;8.820;2022-07-29T11:03:47;5.37;;;3.27;;
8716;SDS011;4395;48.554;8.820;2022-07-29T11:06:14;3.83;;;2.93;;
8716;SDS011;4395;48.554;8.820;2022-07-29T11:08:22;4.07;;;2.70;;
8716;SDS011;4395;48.554;8.820;2022-07-29T11:10:28;6.23;;;3.80;;
8716;SDS011;4395;48.554;8.820;2022-07-29T11:12:47;4.83;;;3.97;;
8716;SDS011;4395;48.554;8.820;2022-07-29T11:14:56;4.97;;;3.60;;
8716;SDS011;4395;48.554;8.820;2022-07-29T11:17:02;4.90;;;4.50;;
8716;SDS011;4395;48.554;8.820;2022-07-29T11:19:20;5.20;;;4.23;;
8716;SDS011;4395;48.554;8.820;2022-07-29T11:21:38;4.47;;;4.03;;
8716;SDS011;4395;48.554;8.820;2022-07-29T11:24:10;4.07;;;3.70;;
8716;SDS011;4395;48.554;8.820;2022-07-29T11:26:19;6.50;;;4.27;;
8716;SDS011;4395;48.554;8.820;2022-07-29T11:28:24;3.77;;;3.47;;
8716;SDS011;4395;48.554;8.820;2022-07-29T11:32:53;4.43;;;3.50;;
8716;SDS011;4395;48.554;8.820;2022-07-29T11:35:16;3.40;;;3.10;;
8716;SDS011;4395;48.554;8.820;2022-07-29T11:37:41;4.53;;;3.13;;
8716;SDS011;4395;48.554;8.820;2022-07-29T11:40:09;4.27;;;2.93;;
8716;SDS011;4395;48.554;8.820;2022-07-29T11:44:53;3.57;;;3.00;;
8716;SDS011;4395;48.554;8.820;2022-07-29T11:46:58;3.13;;;2.83;;
8716;SDS011;4395;48.554;8.820;2022-07-29T11:49:02;3.77;;;3.00;;
8716;SDS011;4395;48.554;8.820;2022-07-29T11:51:10;2.70;;;2.50;;
8716;SDS011;4395;48.554;8.820;2022-07-29T11:53:15;2.73;;;2.57;;
8716;SDS011;4395;48.554;8.820;2022-07-29T11:55:18;5.33;;;2.63;;
8716;SDS011;4395;48.554;8.820;2022-07-29T11:57:32;7.77;;;2.97;;
8716;SDS011;4395;48.554;8.820;2022-07-29T11:59:38;4.20;;;2.93;;
8716;SDS011;4395;48.554;8.820;2022-07-29T12:01:51;3.17;;;2.63;;
8716;SDS011;4395;48.554;8.820;2022-07-29T12:04:14;3.90;;;3.50;;
8716;SDS011;4395;48.554;8.820;2022-07-29T12:06:20;3.23;;;2.30;;
8716;SDS011;4395;48.554;8.820;2022-07-29T12:08:24;6.60;;;3.93;;
8716;SDS011;4395;48.554;8.820;2022-07-29T12:10:31;4.63;;;3.07;;
8716;SDS011;4395;48.554;8.820;2022-07-29T12:12:34;5.43;;;2.90;;
8716;SDS011;4395;48.554;8.820;2022-07-29T12:14:39;5.53;;;2.83;;
8716;SDS011;4395;48.554;8.820;2022-07-29T12:16:46;3.73;;;2.90;;
8716;SDS011;4395;48.554;8.820;2022-07-29T12:18:56;3.20;;;2.90;;
8716;SDS011;4395;48.554;8.820;2022-07-29T12:21:01;6.10;;;2.87;;
8716;SDS011;4395;48.554;8.820;2022-07-29T12:23:06;5.83;;;2.80;;
8716;SDS011;4395;48.554;8.820;2022-07-29T12:25:12;2.80;;;2.60;;
8716;SDS011;4395;48.554;8.820;2022-07-29T12:27:34;4.63;;;2.80;;
8716;SDS011;4395;48.554;8.820;2022-07-29T12:29:40;2.70;;;2.50;;
8716;SDS011;4395;48.554;8.820;2022-07-29T12:31:51;10.07;;;2.83;;
8716;SDS011;4395;48.554;8.820;2022-07-29T12:33:58;6.50;;;2.70;;
8716;SDS011;4395;48.554;8.820;2022-07-29T12:36:02;9.37;;;8.47;;
8716;SDS011;4395;48.554;8.820;2022-07-29T12:38:09;4.50;;;3.27;;
8716;SDS011;4395;48.554;8.820;2022-07-29T12:40:15;4.90;;;2.70;;
8716;SDS011;4395;48.554;8.820;2022-07-29T12:42:19;7.13;;;2.90;;
8716;SDS011;4395;48.554;8.820;2022-07-29T12:44:23;7.73;;;4.27;;
8716;SDS011;4395;48.554;8.820;2022-07-29T12:46:27;8.83;;;3.80;;
8716;SDS011;4395;48.554;8.820;2022-07-29T12:48:33;8.17;;;4.37;;
8716;SDS011;4395;48.554;8.820;2022-07-29T12:50:51;15.73;;;4.43;;
8716;SDS011;4395;48.554;8.820;2022-07-29T12:53:03;7.07;;;4.43;;
8716;SDS011;4395;48.554;8.820;2022-07-29T12:55:11;9.90;;;4.70;;
8716;SDS011;4395;48.554;8.820;2022-07-29T12:57:15;11.67;;;8.27;;
8716;SDS011;4395;48.554;8.820;2022-07-29T12:59:21;9.17;;;7.70;;
8716;SDS011;4395;48.554;8.820;2022-07-29T13:01:24;8.17;;;4.90;;
8716;SDS011;4395;48.554;8.820;2022-07-29T13:03:28;6.00;;;4.87;;
8716;SDS011;4395;48.554;8.820;2022-07-29T13:05:39;8.37;;;4.87;;
8716;SDS011;4395;48.554;8.820;2022-07-29T13:07:49;10.17;;;8.50;;
8716;SDS011;4395;48.554;8.820;2022-07-29T13:10:09;12.30;;;8.83;;
8716;SDS011;4395;48.554;8.820;2022-07-29T13:12:19;7.80;;;7.00;;
8716;SDS011;4395;48.554;8.820;2022-07-29T13:14:31;13.10;;;10.13;;
8716;SDS011;4395;48.554;8.820;2022-07-29T13:16:36;7.00;;;5.40;;
8716;SDS011;4395;48.554;8.820;2022-07-29T13:19:03;7.10;;;4.57;;